createdAt,value
2023-03-18T00:00:16.656Z,9.90
2023-03-18T00:02:44.103Z,9.90
2023-03-18T00:05:12.794Z,9.80
2023-03-18T00:07:40.500Z,9.80
2023-03-18T00:10:10.183Z,9.80
2023-03-18T00:12:38.884Z,9.80
2023-03-18T00:15:11.185Z,9.80
2023-03-18T00:17:37.764Z,9.80
2023-03-18T00:20:06.786Z,9.70
2023-03-18T00:22:37.761Z,9.70
2023-03-18T00:25:07.001Z,9.70
2023-03-18T00:27:34.912Z,9.70
2023-03-18T00:30:03.384Z,9.70
2023-03-18T00:32:30.152Z,9.70
2023-03-18T00:34:57.569Z,9.70
2023-03-18T00:37:31.686Z,9.60
2023-03-18T00:40:06.690Z,9.60
2023-03-18T00:42:47.324Z,9.70
2023-03-18T00:45:16.196Z,9.70
2023-03-18T00:47:43.803Z,9.70
2023-03-18T00:50:11.702Z,9.80
2023-03-18T00:52:39.525Z,9.80
2023-03-18T00:55:06.985Z,9.70
2023-03-18T00:57:34.199Z,9.70
2023-03-18T01:00:01.201Z,9.80
2023-03-18T01:02:29.532Z,9.80
2023-03-18T01:04:57.997Z,9.80
2023-03-18T01:07:25.221Z,9.70
2023-03-18T01:09:52.031Z,9.70
2023-03-18T01:12:18.936Z,9.80
2023-03-18T01:14:45.799Z,9.70
2023-03-18T01:17:12.492Z,9.70
2023-03-18T01:19:39.185Z,9.70
2023-03-18T01:22:07.606Z,9.60
2023-03-18T01:24:34.259Z,9.60
2023-03-18T01:27:00.976Z,9.60
2023-03-18T01:29:28.034Z,9.50
2023-03-18T01:31:55.893Z,9.50
2023-03-18T01:34:23.716Z,9.50
2023-03-18T01:36:50.616Z,9.50
2023-03-18T01:39:17.599Z,9.50
2023-03-18T01:41:45.260Z,9.40
2023-03-18T01:44:17.590Z,9.40
2023-03-18T01:46:49.563Z,9.40
2023-03-18T01:49:19.108Z,9.40
2023-03-18T01:51:52.161Z,9.40
2023-03-18T01:54:19.459Z,9.40
2023-03-18T01:56:48.694Z,9.40
2023-03-18T01:59:16.911Z,9.40
2023-03-18T02:01:54.738Z,9.30
2023-03-18T02:04:25.742Z,9.30
2023-03-18T02:06:52.423Z,9.30
2023-03-18T02:09:19.175Z,9.20
2023-03-18T02:11:49.918Z,9.20
2023-03-18T02:14:20.408Z,9.10
2023-03-18T02:17:19.804Z,9.10
2023-03-18T02:20:03.122Z,9.00
2023-03-18T02:22:45.031Z,9.00
2023-03-18T02:25:37.443Z,8.90
2023-03-18T02:28:12.343Z,8.90
2023-03-18T02:31:03.983Z,8.80
2023-03-18T02:33:35.116Z,8.70
2023-03-18T02:36:06.059Z,8.70
2023-03-18T02:38:33.108Z,8.60
2023-03-18T02:40:59.846Z,8.60
2023-03-18T02:43:32.461Z,8.50
2023-03-18T02:46:26.687Z,8.50
2023-03-18T02:48:55.008Z,8.50
2023-03-18T02:51:22.086Z,8.50
2023-03-18T02:53:48.932Z,8.50
2023-03-18T02:56:16.060Z,8.40
2023-03-18T02:58:43.161Z,8.40
2023-03-18T03:01:11.407Z,8.40
2023-03-18T03:03:39.173Z,8.40
2023-03-18T03:06:06.355Z,8.40
2023-03-18T03:08:33.097Z,8.30
2023-03-18T03:10:59.882Z,8.30
2023-03-18T03:13:26.600Z,8.30
2023-03-18T03:15:54.247Z,8.20
2023-03-18T03:18:21.862Z,8.20
2023-03-18T03:20:50.477Z,8.20
2023-03-18T03:23:17.585Z,8.10
2023-03-18T03:25:45.011Z,8.10
2023-03-18T03:28:13.991Z,8.10
2023-03-18T03:30:41.085Z,8.10
2023-03-18T03:33:08.311Z,8.10
2023-03-18T03:35:35.124Z,8.10
2023-03-18T03:38:02.046Z,8.10
2023-03-18T03:40:29.255Z,8.10
2023-03-18T03:42:56.009Z,8.10
2023-03-18T03:45:23.122Z,8.00
2023-03-18T03:47:49.859Z,8.10
2023-03-18T03:50:18.651Z,8.00
2023-03-18T03:52:46.116Z,8.10
2023-03-18T03:55:16.388Z,8.10
2023-03-18T03:57:43.257Z,8.10
2023-03-18T04:00:14.134Z,8.10
2023-03-18T04:02:43.474Z,8.10
2023-03-18T04:05:12.470Z,8.10
2023-03-18T04:07:41.094Z,8.10
2023-03-18T04:10:12.320Z,8.10
2023-03-18T04:12:39.800Z,8.10
2023-03-18T04:15:08.044Z,8.10
2023-03-18T04:17:35.532Z,8.10
2023-03-18T04:20:03.340Z,8.10
2023-03-18T04:22:30.575Z,8.00
2023-03-18T04:24:57.253Z,8.00
2023-03-18T04:27:24.394Z,8.00
2023-03-18T04:29:51.122Z,8.00
2023-03-18T04:32:17.872Z,8.00
2023-03-18T04:34:44.662Z,8.00
2023-03-18T04:37:13.707Z,7.90
2023-03-18T04:39:41.768Z,7.90
2023-03-18T04:42:08.491Z,7.90
2023-03-18T04:44:35.761Z,7.90
2023-03-18T04:47:02.570Z,7.90
2023-03-18T04:49:29.734Z,7.90
2023-03-18T04:51:56.501Z,7.90
2023-03-18T04:54:23.135Z,7.80
2023-03-18T04:56:50.579Z,7.80
2023-03-18T04:59:18.164Z,7.80
2023-03-18T05:01:44.932Z,7.80
2023-03-18T05:04:11.675Z,7.80
2023-03-18T05:06:38.507Z,7.80
2023-03-18T05:09:05.631Z,7.70
2023-03-18T05:11:33.062Z,7.70
2023-03-18T05:13:59.721Z,7.70
2023-03-18T05:16:26.573Z,7.70
2023-03-18T05:18:53.357Z,7.70
2023-03-18T05:21:20.309Z,7.70
2023-03-18T05:23:47.140Z,7.60
2023-03-18T05:26:13.923Z,7.70
2023-03-18T05:28:40.569Z,7.60
2023-03-18T05:31:07.525Z,7.60
2023-03-18T05:33:34.236Z,7.60
2023-03-18T05:36:00.995Z,7.60
2023-03-18T05:38:27.695Z,7.60
2023-03-18T05:40:55.288Z,7.60
2023-03-18T05:43:22.115Z,7.60
2023-03-18T05:45:48.940Z,7.60
2023-03-18T05:48:15.693Z,7.60
2023-03-18T05:50:44.078Z,7.60
2023-03-18T05:53:16.375Z,7.60
2023-03-18T05:55:43.422Z,7.50
2023-03-18T05:58:11.052Z,7.50
2023-03-18T06:00:38.222Z,7.50
2023-03-18T06:03:05.603Z,7.50
2023-03-18T06:05:32.743Z,7.40
2023-03-18T06:08:01.059Z,7.50
2023-03-18T06:10:28.981Z,7.60
2023-03-18T06:12:55.798Z,7.70
2023-03-18T06:15:22.920Z,7.70
2023-03-18T06:17:49.778Z,7.80
2023-03-18T06:20:18.674Z,7.80
2023-03-18T06:22:49.523Z,7.80
2023-03-18T06:25:21.196Z,7.90
2023-03-18T06:27:48.078Z,8.00
2023-03-18T06:30:16.165Z,8.10
2023-03-18T06:32:43.408Z,8.10
2023-03-18T06:35:11.604Z,8.20
2023-03-18T06:37:40.039Z,8.30
2023-03-18T06:40:08.262Z,8.40
2023-03-18T06:42:35.474Z,8.50
2023-03-18T06:45:02.257Z,8.70
2023-03-18T06:47:28.996Z,8.80
2023-03-18T06:49:56.707Z,9.00
2023-03-18T06:52:23.690Z,9.20
2023-03-18T06:54:50.694Z,9.40
2023-03-18T06:57:17.888Z,9.70
2023-03-18T06:59:45.495Z,10.00
2023-03-18T07:02:12.501Z,10.20
2023-03-18T07:04:39.208Z,10.40
2023-03-18T07:07:05.944Z,10.70
2023-03-18T07:09:33.404Z,11.00
2023-03-18T07:12:01.123Z,11.30
2023-03-18T07:14:28.622Z,11.40
2023-03-18T07:16:56.100Z,11.60
2023-03-18T07:19:23.119Z,11.80
2023-03-18T07:21:50.000Z,12.10
2023-03-18T07:24:17.292Z,12.40
2023-03-18T07:26:44.389Z,12.60
2023-03-18T07:29:11.018Z,12.70
2023-03-18T07:31:38.250Z,12.70
2023-03-18T07:34:05.140Z,13.00
2023-03-18T07:36:31.917Z,13.30
2023-03-18T07:38:59.946Z,13.50
2023-03-18T07:41:26.703Z,13.70
2023-03-18T07:43:53.746Z,13.70
2023-03-18T07:46:20.992Z,13.90
2023-03-18T07:48:48.986Z,14.00
2023-03-18T07:51:16.000Z,14.30
2023-03-18T07:53:43.575Z,14.60
2023-03-18T07:56:10.796Z,14.80
2023-03-18T07:58:38.740Z,15.00
2023-03-18T08:01:06.139Z,15.10
2023-03-18T08:03:33.864Z,15.30
2023-03-18T08:06:01.119Z,15.40
2023-03-18T08:08:28.773Z,15.60
2023-03-18T08:11:00.389Z,15.40
2023-03-18T08:13:27.426Z,15.40
2023-03-18T08:15:54.829Z,15.40
2023-03-18T08:18:22.458Z,15.10
2023-03-18T08:20:49.320Z,15.20
2023-03-18T08:23:16.489Z,15.20
2023-03-18T08:25:43.332Z,14.90
2023-03-18T08:28:10.813Z,14.60
2023-03-18T08:30:39.528Z,14.50
2023-03-18T08:33:06.360Z,14.30
2023-03-18T08:35:34.311Z,14.30
2023-03-18T08:38:01.155Z,14.40
2023-03-18T08:40:28.423Z,14.20
2023-03-18T08:42:55.191Z,14.00
2023-03-18T08:45:21.933Z,13.70
2023-03-18T08:47:48.684Z,13.70
2023-03-18T08:50:15.603Z,13.50
2023-03-18T08:52:42.521Z,13.50
2023-03-18T08:55:09.756Z,13.60
2023-03-18T08:57:37.434Z,13.60
2023-03-18T09:00:05.553Z,13.70
2023-03-18T09:02:33.625Z,13.80
2023-03-18T09:05:00.533Z,14.00
2023-03-18T09:07:27.927Z,13.90
2023-03-18T09:09:54.681Z,14.00
2023-03-18T09:12:22.075Z,14.20
2023-03-18T09:14:48.825Z,14.20
2023-03-18T09:17:15.829Z,14.20
2023-03-18T09:19:42.586Z,14.30
2023-03-18T09:22:10.309Z,14.40
2023-03-18T09:24:37.174Z,14.60
2023-03-18T09:27:04.015Z,14.50
2023-03-18T09:29:30.682Z,14.60
2023-03-18T09:31:57.526Z,14.50
2023-03-18T09:34:24.395Z,14.40
2023-03-18T09:36:51.584Z,14.60
2023-03-18T09:39:21.966Z,14.50
2023-03-18T09:42:14.560Z,14.50
2023-03-18T09:44:41.507Z,14.50
2023-03-18T09:47:08.367Z,14.50
2023-03-18T09:50:01.173Z,14.70
2023-03-18T09:52:37.088Z,14.40
2023-03-18T09:55:21.538Z,14.40
2023-03-18T09:57:51.527Z,14.40
2023-03-18T10:00:29.893Z,14.60
2023-03-18T10:03:21.455Z,14.80
2023-03-18T10:05:51.926Z,14.90
2023-03-18T10:08:44.509Z,14.90
2023-03-18T10:11:23.000Z,15.00
2023-03-18T10:13:57.451Z,15.30
2023-03-18T10:16:31.146Z,15.30
2023-03-18T10:18:58.144Z,15.40
2023-03-18T10:21:27.717Z,15.50
2023-03-18T10:24:22.398Z,15.50
2023-03-18T10:26:58.703Z,15.50
2023-03-18T10:29:40.660Z,15.70
2023-03-18T10:32:10.822Z,15.70
2023-03-18T10:34:46.150Z,15.60
2023-03-18T10:37:42.379Z,15.40
2023-03-18T10:40:17.670Z,15.80
2023-03-18T10:42:45.477Z,16.00
2023-03-18T10:45:33.926Z,16.20
2023-03-18T10:48:25.505Z,16.30
2023-03-18T10:51:19.826Z,16.30
2023-03-18T10:53:59.880Z,16.50
2023-03-18T10:56:27.420Z,16.60
2023-03-18T10:58:54.263Z,16.70
2023-03-18T11:01:25.039Z,16.60
2023-03-18T11:03:56.469Z,16.50
2023-03-18T11:06:38.170Z,16.60
2023-03-18T11:09:12.331Z,16.60
2023-03-18T11:11:40.821Z,16.70
2023-03-18T11:14:13.299Z,16.70
2023-03-18T11:16:45.336Z,16.70
2023-03-18T11:19:24.547Z,16.60
2023-03-18T11:22:01.985Z,16.50
2023-03-18T11:24:44.463Z,16.80
2023-03-18T11:27:14.155Z,16.90
2023-03-18T11:29:45.113Z,16.70
2023-03-18T11:32:31.611Z,16.70
2023-03-18T11:35:05.210Z,16.80
2023-03-18T11:37:37.745Z,16.90
2023-03-18T11:40:22.300Z,16.90
2023-03-18T11:42:54.582Z,16.90
2023-03-18T11:45:45.935Z,16.90
2023-03-18T11:48:40.856Z,17.00
2023-03-18T11:51:35.093Z,16.90
2023-03-18T11:54:07.982Z,16.80
2023-03-18T11:56:48.481Z,16.90
2023-03-18T11:59:20.918Z,17.10
2023-03-18T12:01:50.586Z,17.10
2023-03-18T12:04:23.382Z,17.20
2023-03-18T12:07:21.927Z,17.20
2023-03-18T12:10:00.324Z,17.10
2023-03-18T12:12:48.379Z,17.30
2023-03-18T12:15:25.847Z,17.40
2023-03-18T12:18:10.078Z,17.50
2023-03-18T12:20:45.985Z,17.50
2023-03-18T12:23:50.343Z,17.60
2023-03-18T12:26:46.535Z,17.60
2023-03-18T12:29:34.635Z,17.60
2023-03-18T12:32:13.900Z,17.60
2023-03-18T12:34:56.043Z,17.70
2023-03-18T12:37:31.919Z,17.70
2023-03-18T12:40:17.883Z,17.80
2023-03-18T12:43:20.910Z,17.70
2023-03-18T12:45:52.528Z,17.60
2023-03-18T12:48:43.175Z,17.40
2023-03-18T12:51:15.440Z,17.10
2023-03-18T12:53:48.999Z,16.80
2023-03-18T12:56:17.965Z,16.80
2023-03-18T12:58:54.125Z,16.70
2023-03-18T13:01:22.102Z,16.90
2023-03-18T13:03:55.268Z,16.40
2023-03-18T13:06:30.836Z,16.40
2023-03-18T13:09:00.846Z,16.20
2023-03-18T13:11:57.576Z,16.20
2023-03-18T13:14:31.224Z,16.30
2023-03-18T13:16:59.196Z,16.40
2023-03-18T13:19:26.083Z,16.40
2023-03-18T13:22:12.968Z,16.40
2023-03-18T13:25:04.050Z,16.70
2023-03-18T13:27:40.017Z,16.60
2023-03-18T13:30:22.204Z,16.50
2023-03-18T13:32:48.851Z,16.40
2023-03-18T13:35:18.690Z,16.40
2023-03-18T13:38:03.306Z,16.40
2023-03-18T13:41:01.766Z,16.40
2023-03-18T13:43:29.886Z,16.50
2023-03-18T13:45:59.043Z,16.70
2023-03-18T13:48:33.632Z,16.50
2023-03-18T13:51:23.688Z,16.60
2023-03-18T13:53:53.748Z,16.70
2023-03-18T13:56:28.733Z,16.50
2023-03-18T13:58:55.558Z,16.60
2023-03-18T14:01:28.649Z,16.60
2023-03-18T14:04:01.269Z,16.50
2023-03-18T14:06:36.917Z,16.60
2023-03-18T14:09:30.048Z,16.50
2023-03-18T14:12:23.990Z,16.50
2023-03-18T14:14:51.333Z,16.60
2023-03-18T14:17:33.426Z,16.50
2023-03-18T14:20:19.657Z,16.40
2023-03-18T14:23:16.150Z,16.50
2023-03-18T14:25:44.244Z,16.60
2023-03-18T14:28:10.857Z,16.40
2023-03-18T14:30:37.573Z,16.50
2023-03-18T14:33:25.734Z,16.40
2023-03-18T14:36:09.997Z,16.30
2023-03-18T14:39:03.381Z,16.50
2023-03-18T14:41:33.854Z,16.50
2023-03-18T14:44:07.789Z,16.40
2023-03-18T14:46:41.664Z,16.40
2023-03-18T14:49:32.798Z,16.50
2023-03-18T14:52:01.904Z,16.60
2023-03-18T14:54:35.708Z,16.30
2023-03-18T14:57:05.348Z,16.10
2023-03-18T14:59:32.085Z,16.10
2023-03-18T15:01:59.009Z,16.30
2023-03-18T15:04:27.091Z,16.20
2023-03-18T15:06:56.662Z,16.30
2023-03-18T15:09:28.384Z,16.20
2023-03-18T15:11:55.719Z,16.30
2023-03-18T15:14:26.832Z,16.40
2023-03-18T15:17:00.130Z,16.40
2023-03-18T15:19:28.524Z,16.30
2023-03-18T15:21:58.154Z,16.20
2023-03-18T15:24:26.783Z,16.00
2023-03-18T15:27:05.580Z,15.90
2023-03-18T15:29:35.927Z,15.70
2023-03-18T15:32:26.404Z,15.70
2023-03-18T15:34:58.056Z,15.60
2023-03-18T15:37:31.930Z,15.50
2023-03-18T15:40:14.266Z,15.40
2023-03-18T15:42:43.806Z,15.50
2023-03-18T15:45:18.026Z,15.60
2023-03-18T15:47:45.025Z,15.70
2023-03-18T15:50:14.777Z,15.70
2023-03-18T15:52:42.961Z,15.70
2023-03-18T15:55:37.374Z,15.60
2023-03-18T15:58:15.707Z,15.50
2023-03-18T16:00:42.492Z,15.50
2023-03-18T16:03:19.511Z,15.40
2023-03-18T16:05:46.517Z,15.40
2023-03-18T16:08:14.252Z,15.20
2023-03-18T16:10:41.633Z,15.20
2023-03-18T16:13:17.259Z,15.10
2023-03-18T16:15:44.802Z,15.10
2023-03-18T16:18:12.861Z,15.00
2023-03-18T16:20:41.672Z,15.00
2023-03-18T16:23:08.461Z,15.00
2023-03-18T16:25:35.535Z,15.00
2023-03-18T16:28:02.724Z,14.90
2023-03-18T16:30:33.156Z,14.90
2023-03-18T16:33:00.011Z,14.80
2023-03-18T16:35:34.476Z,14.80
2023-03-18T16:38:01.791Z,14.70
2023-03-18T16:40:30.770Z,14.70
2023-03-18T16:42:57.969Z,14.60
2023-03-18T16:45:30.422Z,14.60
2023-03-18T16:48:00.925Z,14.50
2023-03-18T16:50:31.472Z,14.40
2023-03-18T16:52:58.665Z,14.40
2023-03-18T16:55:26.406Z,14.30
2023-03-18T16:57:58.559Z,14.20
2023-03-18T17:00:31.800Z,14.10
2023-03-18T17:02:59.400Z,14.00
2023-03-18T17:05:26.296Z,13.90
2023-03-18T17:07:53.641Z,13.80
2023-03-18T17:10:23.989Z,13.70
2023-03-18T17:13:05.849Z,13.60
2023-03-18T17:15:37.283Z,13.50
2023-03-18T17:18:13.286Z,13.30
2023-03-18T17:20:41.379Z,13.20
2023-03-18T17:23:20.347Z,13.10
2023-03-18T17:25:50.831Z,13.00
2023-03-18T17:28:40.497Z,12.90
2023-03-18T17:31:07.482Z,12.90
2023-03-18T17:33:35.567Z,12.80
2023-03-18T17:36:02.667Z,12.80
2023-03-18T17:38:34.849Z,12.80
2023-03-18T17:41:14.133Z,12.70
2023-03-18T17:43:41.968Z,12.60
2023-03-18T17:46:08.693Z,12.60
2023-03-18T17:48:37.540Z,12.50
2023-03-18T17:51:07.158Z,12.40
2023-03-18T17:53:44.236Z,12.40
2023-03-18T17:56:13.999Z,12.30
2023-03-18T17:58:44.664Z,12.20
2023-03-18T18:01:16.410Z,12.10
2023-03-18T18:03:43.682Z,12.00
2023-03-18T18:06:20.516Z,11.90
2023-03-18T18:08:48.692Z,11.80
2023-03-18T18:11:34.657Z,11.70
2023-03-18T18:14:10.670Z,11.70
2023-03-18T18:16:37.556Z,11.60
2023-03-18T18:19:04.283Z,11.50
2023-03-18T18:21:31.120Z,11.40
2023-03-18T18:23:58.252Z,11.30
2023-03-18T18:26:24.917Z,11.20
2023-03-18T18:28:52.706Z,11.20
2023-03-18T18:31:20.935Z,11.00
2023-03-18T18:33:50.121Z,11.00
2023-03-18T18:36:17.986Z,10.90
2023-03-18T18:38:44.977Z,10.90
2023-03-18T18:41:11.765Z,10.80
2023-03-18T18:43:38.418Z,10.80
2023-03-18T18:46:14.666Z,10.70
2023-03-18T18:48:43.554Z,10.60
2023-03-18T18:51:16.135Z,10.50
2023-03-18T18:53:43.598Z,10.50
2023-03-18T18:56:34.233Z,10.40
2023-03-18T18:59:02.751Z,10.40
2023-03-18T19:01:29.518Z,10.40
2023-03-18T19:03:56.759Z,10.50
2023-03-18T19:06:29.261Z,10.50
2023-03-18T19:08:57.906Z,10.50
2023-03-18T19:11:26.012Z,10.50
2023-03-18T19:13:54.819Z,10.50
2023-03-18T19:16:34.051Z,10.50
2023-03-18T19:19:01.271Z,10.50
2023-03-18T19:21:27.958Z,10.60
2023-03-18T19:23:54.743Z,10.60
2023-03-18T19:26:21.649Z,10.50
2023-03-18T19:28:57.678Z,10.50
2023-03-18T19:31:27.285Z,10.50
2023-03-18T19:33:54.638Z,10.60
2023-03-18T19:36:37.815Z,10.60
2023-03-18T19:39:06.082Z,10.50
2023-03-18T19:41:32.795Z,10.50
2023-03-18T19:44:05.601Z,10.50
2023-03-18T19:46:39.084Z,10.40
2023-03-18T19:49:26.996Z,10.40
2023-03-18T19:51:55.051Z,10.40
2023-03-18T19:54:31.527Z,10.30
2023-03-18T19:57:03.704Z,10.40
2023-03-18T19:59:38.252Z,10.30
2023-03-18T20:02:20.066Z,10.30
2023-03-18T20:04:47.878Z,10.30
2023-03-18T20:07:15.077Z,10.30
2023-03-18T20:09:42.114Z,10.30
2023-03-18T20:12:18.599Z,10.20
2023-03-18T20:14:45.446Z,10.20
2023-03-18T20:17:29.101Z,10.20
2023-03-18T20:19:56.069Z,10.10
2023-03-18T20:22:36.521Z,10.10
2023-03-18T20:25:05.916Z,10.00
2023-03-18T20:27:32.954Z,10.00
2023-03-18T20:29:59.980Z,10.00
2023-03-18T20:32:27.017Z,10.00
2023-03-18T20:34:53.917Z,10.00
2023-03-18T20:37:35.022Z,10.00
2023-03-18T20:40:09.930Z,10.00
2023-03-18T20:42:36.734Z,10.10
2023-03-18T20:45:04.393Z,10.10
2023-03-18T20:47:31.209Z,10.20
2023-03-18T20:49:58.200Z,10.30
2023-03-18T20:52:33.791Z,10.30
2023-03-18T20:55:01.210Z,10.40
2023-03-18T20:57:28.022Z,10.50
2023-03-18T20:59:54.808Z,10.50
2023-03-18T21:02:29.866Z,10.50
2023-03-18T21:04:58.005Z,10.50
2023-03-18T21:07:25.584Z,10.50
2023-03-18T21:09:52.966Z,10.40
2023-03-18T21:12:21.507Z,10.40
2023-03-18T21:14:49.345Z,10.40
2023-03-18T21:17:24.585Z,10.40
2023-03-18T21:19:52.740Z,10.30
2023-03-18T21:22:28.894Z,10.30
2023-03-18T21:24:56.720Z,10.30
2023-03-18T21:27:26.870Z,10.30
2023-03-18T21:29:55.447Z,10.40
2023-03-18T21:32:33.769Z,10.40
2023-03-18T21:35:00.705Z,10.40
2023-03-18T21:37:27.553Z,10.50
2023-03-18T21:39:54.267Z,10.50
2023-03-18T21:42:32.732Z,10.50
2023-03-18T21:44:59.437Z,10.50
2023-03-18T21:47:27.170Z,10.50
2023-03-18T21:49:54.129Z,10.50
2023-03-18T21:52:44.661Z,10.50
2023-03-18T21:55:12.389Z,10.40
2023-03-18T21:57:39.161Z,10.40
2023-03-18T22:00:06.710Z,10.40
2023-03-18T22:02:36.414Z,10.40
2023-03-18T22:05:07.683Z,10.40
2023-03-18T22:07:34.476Z,10.50
2023-03-18T22:10:01.833Z,10.50
2023-03-18T22:12:33.024Z,10.40
2023-03-18T22:15:00.276Z,10.40
2023-03-18T22:17:27.972Z,10.30
2023-03-18T22:19:55.910Z,10.20
2023-03-18T22:22:29.418Z,10.20
2023-03-18T22:24:56.566Z,10.20
2023-03-18T22:27:26.187Z,10.20
2023-03-18T22:29:54.409Z,10.10
2023-03-18T22:32:40.579Z,10.10
2023-03-18T22:35:28.483Z,10.00
2023-03-18T22:37:56.143Z,10.00
2023-03-18T22:40:25.384Z,10.00
2023-03-18T22:42:54.891Z,9.90
2023-03-18T22:45:30.714Z,9.90
2023-03-18T22:48:01.118Z,9.90
2023-03-18T22:50:30.526Z,10.00
2023-03-18T22:53:07.076Z,10.00
2023-03-18T22:55:38.059Z,10.00
2023-03-18T22:58:05.522Z,10.00
2023-03-18T23:00:40.933Z,10.10
2023-03-18T23:03:33.688Z,10.10
2023-03-18T23:06:02.082Z,10.20
2023-03-18T23:08:29.421Z,10.20
2023-03-18T23:10:58.967Z,10.20
2023-03-18T23:13:39.872Z,10.20
2023-03-18T23:16:10.589Z,10.20
2023-03-18T23:18:37.794Z,10.20
2023-03-18T23:21:04.678Z,10.10
2023-03-18T23:23:31.662Z,10.10
2023-03-18T23:25:58.345Z,10.10
2023-03-18T23:28:25.017Z,10.00
2023-03-18T23:30:52.645Z,10.00
2023-03-18T23:33:19.920Z,10.00
2023-03-18T23:35:48.114Z,10.00
2023-03-18T23:38:14.841Z,9.90
2023-03-18T23:40:41.597Z,9.90
2023-03-18T23:43:09.140Z,9.80
2023-03-18T23:45:37.709Z,9.80
2023-03-18T23:48:05.691Z,9.80
2023-03-18T23:50:32.355Z,9.80
2023-03-18T23:53:00.102Z,9.80
2023-03-18T23:55:34.551Z,9.90
2023-03-18T23:58:05.218Z,9.90
